TAF KSTL
AMD KSTL 280857Z 2809/2912 33007KT P6SM SCT250=
METAR KSTL
KSTL 280851Z 34007KT 10SM OVC230 06/00 A3010 RMK AO2 SLP194 T00560000 53025 ?
KSTL 280751Z 34009KT 10SM BKN210 07/01 A3008 RMK AO2 SLP186 T00670006 ?
KSTL 280651Z 32010G17KT 10SM BKN210 08/01 A3005 RMK AO2 SLP175 T00830006 ?
KSTL 280551Z 33008KT 10SM BKN220 08/01 A3003 RMK AO2 SLP168 T00830011 10106 20067 401561006 53023 ?
KSTL 280451Z 34008KT 10SM FEW250 09/01 A3000 RMK AO2 SLP160 T00890011
WC KSTL
WS KSTL
WV KSTL